sensor_id;sensor_type;location;lat;lon;timestamp;P1;durP1;ratioP1;P2;durP2;ratioP2
73632;SDS011;61927;50.080;14.418;2024-01-15T00:01:28;19.08;;;11.43;;
73632;SDS011;61927;50.080;14.418;2024-01-15T00:03:55;23.45;;;11.88;;
73632;SDS011;61927;50.080;14.418;2024-01-15T00:06:20;20.80;;;11.30;;
73632;SDS011;61927;50.080;14.418;2024-01-15T00:08:46;26.48;;;11.57;;
73632;SDS011;61927;50.080;14.418;2024-01-15T00:11:12;23.08;;;11.30;;
73632;SDS011;61927;50.080;14.418;2024-01-15T00:13:37;22.60;;;12.23;;
73632;SDS011;61927;50.080;14.418;2024-01-15T00:16:06;18.60;;;11.25;;
73632;SDS011;61927;50.080;14.418;2024-01-15T00:18:31;28.88;;;12.35;;
73632;SDS011;61927;50.080;14.418;2024-01-15T00:20:57;19.77;;;11.13;;
73632;SDS011;61927;50.080;14.418;2024-01-15T00:23:22;27.08;;;12.52;;
73632;SDS011;61927;50.080;14.418;2024-01-15T00:25:50;22.98;;;12.45;;
73632;SDS011;61927;50.080;14.418;2024-01-15T00:28:16;21.83;;;11.68;;
73632;SDS011;61927;50.080;14.418;2024-01-15T00:30:42;20.20;;;11.80;;
73632;SDS011;61927;50.080;14.418;2024-01-15T00:33:08;22.10;;;11.85;;
73632;SDS011;61927;50.080;14.418;2024-01-15T00:35:33;22.38;;;11.68;;
73632;SDS011;61927;50.080;14.418;2024-01-15T00:37:59;21.80;;;12.55;;
73632;SDS011;61927;50.080;14.418;2024-01-15T00:40:25;24.65;;;12.98;;
73632;SDS011;61927;50.080;14.418;2024-01-15T00:42:51;23.67;;;12.10;;
73632;SDS011;61927;50.080;14.418;2024-01-15T00:45:16;23.80;;;12.52;;
73632;SDS011;61927;50.080;14.418;2024-01-15T00:47:42;23.90;;;11.20;;
73632;SDS011;61927;50.080;14.418;2024-01-15T00:50:07;24.52;;;12.23;;
73632;SDS011;61927;50.080;14.418;2024-01-15T00:52:33;25.38;;;12.45;;
73632;SDS011;61927;50.080;14.418;2024-01-15T00:54:59;20.92;;;11.55;;
73632;SDS011;61927;50.080;14.418;2024-01-15T00:57:25;30.67;;;12.35;;
73632;SDS011;61927;50.080;14.418;2024-01-15T00:59:50;24.08;;;11.88;;
73632;SDS011;61927;50.080;14.418;2024-01-15T01:02:16;22.45;;;12.73;;
73632;SDS011;61927;50.080;14.418;2024-01-15T01:04:42;20.90;;;12.18;;
73632;SDS011;61927;50.080;14.418;2024-01-15T01:07:07;22.52;;;11.38;;
73632;SDS011;61927;50.080;14.418;2024-01-15T01:09:33;23.58;;;13.40;;
73632;SDS011;61927;50.080;14.418;2024-01-15T01:11:58;26.23;;;12.85;;
73632;SDS011;61927;50.080;14.418;2024-01-15T01:14:24;24.83;;;13.15;;
73632;SDS011;61927;50.080;14.418;2024-01-15T01:16:49;24.88;;;12.88;;
73632;SDS011;61927;50.080;14.418;2024-01-15T01:19:15;23.77;;;12.73;;
73632;SDS011;61927;50.080;14.418;2024-01-15T01:21:41;22.08;;;12.82;;
73632;SDS011;61927;50.080;14.418;2024-01-15T01:24:07;24.85;;;12.38;;
73632;SDS011;61927;50.080;14.418;2024-01-15T01:26:32;27.70;;;13.30;;
73632;SDS011;61927;50.080;14.418;2024-01-15T01:28:58;21.17;;;12.98;;
73632;SDS011;61927;50.080;14.418;2024-01-15T01:31:24;27.70;;;13.23;;
73632;SDS011;61927;50.080;14.418;2024-01-15T01:33:50;25.55;;;12.15;;
73632;SDS011;61927;50.080;14.418;2024-01-15T01:36:15;29.08;;;13.38;;
73632;SDS011;61927;50.080;14.418;2024-01-15T01:38:41;24.92;;;13.00;;
73632;SDS011;61927;50.080;14.418;2024-01-15T01:41:06;25.60;;;12.90;;
73632;SDS011;61927;50.080;14.418;2024-01-15T01:43:32;21.83;;;12.55;;
73632;SDS011;61927;50.080;14.418;2024-01-15T01:45:58;25.17;;;13.05;;
73632;SDS011;61927;50.080;14.418;2024-01-15T01:48:26;25.70;;;12.43;;
73632;SDS011;61927;50.080;14.418;2024-01-15T01:50:57;25.00;;;13.18;;
73632;SDS011;61927;50.080;14.418;2024-01-15T01:53:25;20.85;;;12.68;;
73632;SDS011;61927;50.080;14.418;2024-01-15T01:55:52;24.52;;;13.52;;
73632;SDS011;61927;50.080;14.418;2024-01-15T01:58:18;20.33;;;12.93;;
73632;SDS011;61927;50.080;14.418;2024-01-15T02:00:45;24.83;;;13.52;;
73632;SDS011;61927;50.080;14.418;2024-01-15T02:03:12;25.63;;;12.73;;
73632;SDS011;61927;50.080;14.418;2024-01-15T02:05:38;23.67;;;13.52;;
73632;SDS011;61927;50.080;14.418;2024-01-15T02:08:05;22.08;;;13.27;;
73632;SDS011;61927;50.080;14.418;2024-01-15T02:10:30;24.55;;;13.40;;
73632;SDS011;61927;50.080;14.418;2024-01-15T02:12:56;26.85;;;13.48;;
73632;SDS011;61927;50.080;14.418;2024-01-15T02:15:22;23.80;;;13.90;;
73632;SDS011;61927;50.080;14.418;2024-01-15T02:20:24;27.10;;;14.07;;
73632;SDS011;61927;50.080;14.418;2024-01-15T02:22:50;22.38;;;14.13;;
73632;SDS011;61927;50.080;14.418;2024-01-15T02:25:15;25.65;;;13.75;;
73632;SDS011;61927;50.080;14.418;2024-01-15T02:27:41;24.63;;;13.45;;
73632;SDS011;61927;50.080;14.418;2024-01-15T02:30:08;30.38;;;15.60;;
73632;SDS011;61927;50.080;14.418;2024-01-15T02:32:36;28.48;;;15.35;;
73632;SDS011;61927;50.080;14.418;2024-01-15T02:35:01;29.80;;;16.05;;
73632;SDS011;61927;50.080;14.418;2024-01-15T02:37:27;24.65;;;13.70;;
73632;SDS011;61927;50.080;14.418;2024-01-15T02:39:53;27.88;;;14.25;;
73632;SDS011;61927;50.080;14.418;2024-01-15T02:42:18;26.83;;;14.70;;
73632;SDS011;61927;50.080;14.418;2024-01-15T02:44:44;28.92;;;15.77;;
73632;SDS011;61927;50.080;14.418;2024-01-15T02:47:10;27.15;;;13.15;;
73632;SDS011;61927;50.080;14.418;2024-01-15T02:49:35;27.25;;;14.90;;
73632;SDS011;61927;50.080;14.418;2024-01-15T02:52:01;26.92;;;14.35;;
73632;SDS011;61927;50.080;14.418;2024-01-15T02:54:26;29.88;;;15.32;;
73632;SDS011;61927;50.080;14.418;2024-01-15T02:56:52;27.75;;;14.73;;
73632;SDS011;61927;50.080;14.418;2024-01-15T02:59:17;28.45;;;14.95;;
73632;SDS011;61927;50.080;14.418;2024-01-15T03:01:43;25.00;;;14.70;;
73632;SDS011;61927;50.080;14.418;2024-01-15T03:04:08;27.38;;;14.90;;
73632;SDS011;61927;50.080;14.418;2024-01-15T03:06:34;29.13;;;14.80;;
73632;SDS011;61927;50.080;14.418;2024-01-15T03:08:59;32.53;;;16.20;;
73632;SDS011;61927;50.080;14.418;2024-01-15T03:11:25;27.40;;;14.57;;
73632;SDS011;61927;50.080;14.418;2024-01-15T03:13:51;32.47;;;15.13;;
73632;SDS011;61927;50.080;14.418;2024-01-15T03:16:17;30.35;;;15.32;;
73632;SDS011;61927;50.080;14.418;2024-01-15T03:18:44;31.13;;;15.57;;
73632;SDS011;61927;50.080;14.418;2024-01-15T03:21:10;27.83;;;15.25;;
73632;SDS011;61927;50.080;14.418;2024-01-15T03:23:36;29.83;;;15.85;;
73632;SDS011;61927;50.080;14.418;2024-01-15T03:26:01;30.20;;;15.82;;
73632;SDS011;61927;50.080;14.418;2024-01-15T03:28:27;23.63;;;13.95;;
73632;SDS011;61927;50.080;14.418;2024-01-15T03:30:52;27.98;;;14.48;;
73632;SDS011;61927;50.080;14.418;2024-01-15T03:33:18;23.45;;;14.25;;
73632;SDS011;61927;50.080;14.418;2024-01-15T03:35:44;28.77;;;14.50;;
73632;SDS011;61927;50.080;14.418;2024-01-15T03:38:09;26.92;;;13.90;;
73632;SDS011;61927;50.080;14.418;2024-01-15T03:40:35;28.63;;;14.65;;
73632;SDS011;61927;50.080;14.418;2024-01-15T03:43:00;28.52;;;15.10;;
73632;SDS011;61927;50.080;14.418;2024-01-15T03:45:26;26.85;;;13.95;;
73632;SDS011;61927;50.080;14.418;2024-01-15T03:47:51;24.90;;;14.35;;
73632;SDS011;61927;50.080;14.418;2024-01-15T03:50:17;25.38;;;14.20;;
73632;SDS011;61927;50.080;14.418;2024-01-15T03:52:42;25.33;;;13.30;;
73632;SDS011;61927;50.080;14.418;2024-01-15T03:55:08;24.20;;;13.38;;
73632;SDS011;61927;50.080;14.418;2024-01-15T03:57:33;28.45;;;13.18;;
73632;SDS011;61927;50.080;14.418;2024-01-15T03:59:59;26.75;;;12.73;;
73632;SDS011;61927;50.080;14.418;2024-01-15T04:02:24;23.20;;;13.32;;
73632;SDS011;61927;50.080;14.418;2024-01-15T04:04:50;27.63;;;14.00;;
73632;SDS011;61927;50.080;14.418;2024-01-15T04:07:16;29.45;;;12.77;;
73632;SDS011;61927;50.080;14.418;2024-01-15T04:09:41;27.42;;;13.32;;
73632;SDS011;61927;50.080;14.418;2024-01-15T04:12:07;23.70;;;12.25;;
73632;SDS011;61927;50.080;14.418;2024-01-15T04:14:33;24.23;;;12.60;;
73632;SDS011;61927;50.080;14.418;2024-01-15T04:16:58;25.98;;;12.57;;
73632;SDS011;61927;50.080;14.418;2024-01-15T04:19:24;26.05;;;12.05;;
73632;SDS011;61927;50.080;14.418;2024-01-15T04:21:49;27.55;;;15.05;;
73632;SDS011;61927;50.080;14.418;2024-01-15T04:24:15;23.17;;;12.60;;
73632;SDS011;61927;50.080;14.418;2024-01-15T04:26:43;28.88;;;13.02;;
73632;SDS011;61927;50.080;14.418;2024-01-15T04:29:08;25.90;;;13.30;;
73632;SDS011;61927;50.080;14.418;2024-01-15T04:31:34;23.13;;;13.25;;
73632;SDS011;61927;50.080;14.418;2024-01-15T04:34:00;21.35;;;12.00;;
73632;SDS011;61927;50.080;14.418;2024-01-15T04:36:25;21.85;;;12.65;;
73632;SDS011;61927;50.080;14.418;2024-01-15T04:38:51;24.10;;;12.43;;
73632;SDS011;61927;50.080;14.418;2024-01-15T04:41:16;26.92;;;12.45;;
73632;SDS011;61927;50.080;14.418;2024-01-15T04:43:42;24.85;;;12.52;;
73632;SDS011;61927;50.080;14.418;2024-01-15T04:46:08;28.70;;;11.82;;
73632;SDS011;61927;50.080;14.418;2024-01-15T04:48:33;27.02;;;12.32;;
73632;SDS011;61927;50.080;14.418;2024-01-15T04:50:59;27.35;;;12.15;;
73632;SDS011;61927;50.080;14.418;2024-01-15T04:53:25;26.73;;;12.50;;
73632;SDS011;61927;50.080;14.418;2024-01-15T04:55:51;21.92;;;11.95;;
73632;SDS011;61927;50.080;14.418;2024-01-15T04:58:16;23.77;;;12.85;;
73632;SDS011;61927;50.080;14.418;2024-01-15T05:00:42;25.80;;;12.30;;
73632;SDS011;61927;50.080;14.418;2024-01-15T05:03:08;20.52;;;11.10;;
73632;SDS011;61927;50.080;14.418;2024-01-15T05:05:33;27.48;;;11.50;;
73632;SDS011;61927;50.080;14.418;2024-01-15T05:07:59;21.42;;;11.45;;
73632;SDS011;61927;50.080;14.418;2024-01-15T05:10:24;22.63;;;11.70;;
73632;SDS011;61927;50.080;14.418;2024-01-15T05:12:50;20.45;;;11.32;;
73632;SDS011;61927;50.080;14.418;2024-01-15T05:15:16;19.10;;;10.93;;
73632;SDS011;61927;50.080;14.418;2024-01-15T05:17:41;19.42;;;11.40;;
73632;SDS011;61927;50.080;14.418;2024-01-15T05:20:07;21.83;;;11.35;;
73632;SDS011;61927;50.080;14.418;2024-01-15T05:22:33;22.88;;;12.18;;
73632;SDS011;61927;50.080;14.418;2024-01-15T05:24:58;18.27;;;10.20;;
73632;SDS011;61927;50.080;14.418;2024-01-15T05:27:24;22.02;;;12.00;;
73632;SDS011;61927;50.080;14.418;2024-01-15T05:29:49;20.73;;;11.07;;
73632;SDS011;61927;50.080;14.418;2024-01-15T05:32:15;19.75;;;10.32;;
73632;SDS011;61927;50.080;14.418;2024-01-15T05:34:41;18.23;;;10.68;;
73632;SDS011;61927;50.080;14.418;2024-01-15T05:37:06;22.30;;;11.30;;
73632;SDS011;61927;50.080;14.418;2024-01-15T05:39:32;18.10;;;9.77;;
73632;SDS011;61927;50.080;14.418;2024-01-15T05:41:58;19.77;;;9.40;;
73632;SDS011;61927;50.080;14.418;2024-01-15T05:44:23;18.02;;;9.25;;
73632;SDS011;61927;50.080;14.418;2024-01-15T05:46:49;16.25;;;8.38;;
73632;SDS011;61927;50.080;14.418;2024-01-15T05:49:15;14.60;;;8.48;;
73632;SDS011;61927;50.080;14.418;2024-01-15T05:51:40;14.57;;;8.63;;
73632;SDS011;61927;50.080;14.418;2024-01-15T05:54:06;16.25;;;9.25;;
73632;SDS011;61927;50.080;14.418;2024-01-15T05:56:31;18.67;;;9.32;;
73632;SDS011;61927;50.080;14.418;2024-01-15T05:58:57;27.42;;;9.45;;
73632;SDS011;61927;50.080;14.418;2024-01-15T06:01:22;18.35;;;9.70;;
73632;SDS011;61927;50.080;14.418;2024-01-15T06:03:48;21.02;;;9.80;;
73632;SDS011;61927;50.080;14.418;2024-01-15T06:06:13;19.20;;;8.98;;
73632;SDS011;61927;50.080;14.418;2024-01-15T06:08:39;20.48;;;9.20;;
73632;SDS011;61927;50.080;14.418;2024-01-15T06:11:05;17.05;;;8.25;;
73632;SDS011;61927;50.080;14.418;2024-01-15T06:13:32;17.25;;;8.55;;
73632;SDS011;61927;50.080;14.418;2024-01-15T06:15:57;17.95;;;8.82;;
73632;SDS011;61927;50.080;14.418;2024-01-15T06:18:23;26.85;;;11.90;;
73632;SDS011;61927;50.080;14.418;2024-01-15T06:20:49;21.75;;;10.93;;
73632;SDS011;61927;50.080;14.418;2024-01-15T06:23:14;18.80;;;9.02;;
73632;SDS011;61927;50.080;14.418;2024-01-15T06:25:40;20.52;;;9.07;;
73632;SDS011;61927;50.080;14.418;2024-01-15T06:28:05;17.52;;;8.60;;
73632;SDS011;61927;50.080;14.418;2024-01-15T06:30:31;24.17;;;9.45;;
73632;SDS011;61927;50.080;14.418;2024-01-15T06:32:57;18.85;;;8.70;;
73632;SDS011;61927;50.080;14.418;2024-01-15T06:35:22;19.10;;;9.13;;
73632;SDS011;61927;50.080;14.418;2024-01-15T06:37:48;18.52;;;8.65;;
73632;SDS011;61927;50.080;14.418;2024-01-15T06:40:13;20.70;;;9.05;;
73632;SDS011;61927;50.080;14.418;2024-01-15T06:42:39;21.50;;;9.23;;
73632;SDS011;61927;50.080;14.418;2024-01-15T06:45:06;19.27;;;8.85;;
73632;SDS011;61927;50.080;14.418;2024-01-15T06:47:32;25.45;;;9.18;;
73632;SDS011;61927;50.080;14.418;2024-01-15T06:49:57;23.80;;;10.13;;
73632;SDS011;61927;50.080;14.418;2024-01-15T06:52:24;17.08;;;8.52;;
73632;SDS011;61927;50.080;14.418;2024-01-15T06:54:49;16.75;;;8.40;;
73632;SDS011;61927;50.080;14.418;2024-01-15T06:57:15;18.20;;;8.95;;
73632;SDS011;61927;50.080;14.418;2024-01-15T06:59:40;17.67;;;8.63;;
73632;SDS011;61927;50.080;14.418;2024-01-15T07:02:06;18.00;;;8.77;;
73632;SDS011;61927;50.080;14.418;2024-01-15T07:04:31;17.33;;;8.50;;
73632;SDS011;61927;50.080;14.418;2024-01-15T07:06:57;19.75;;;9.05;;
73632;SDS011;61927;50.080;14.418;2024-01-15T07:09:22;20.30;;;8.40;;
73632;SDS011;61927;50.080;14.418;2024-01-15T07:11:48;18.65;;;8.20;;
73632;SDS011;61927;50.080;14.418;2024-01-15T07:14:14;19.17;;;8.43;;
73632;SDS011;61927;50.080;14.418;2024-01-15T07:16:39;16.40;;;8.60;;
73632;SDS011;61927;50.080;14.418;2024-01-15T07:19:05;24.17;;;8.88;;
73632;SDS011;61927;50.080;14.418;2024-01-15T07:21:31;18.13;;;8.57;;
73632;SDS011;61927;50.080;14.418;2024-01-15T07:23:57;16.77;;;8.88;;
73632;SDS011;61927;50.080;14.418;2024-01-15T07:26:23;14.80;;;8.70;;
73632;SDS011;61927;50.080;14.418;2024-01-15T07:28:49;17.40;;;9.20;;
73632;SDS011;61927;50.080;14.418;2024-01-15T07:31:17;16.92;;;8.82;;
73632;SDS011;61927;50.080;14.418;2024-01-15T07:33:43;16.88;;;8.68;;
73632;SDS011;61927;50.080;14.418;2024-01-15T07:36:09;19.05;;;8.30;;
73632;SDS011;61927;50.080;14.418;2024-01-15T07:38:34;18.50;;;8.40;;
73632;SDS011;61927;50.080;14.418;2024-01-15T07:41:00;16.60;;;7.78;;
73632;SDS011;61927;50.080;14.418;2024-01-15T07:43:26;18.60;;;8.32;;
73632;SDS011;61927;50.080;14.418;2024-01-15T07:45:53;19.65;;;8.55;;
73632;SDS011;61927;50.080;14.418;2024-01-15T07:48:18;18.25;;;8.57;;
73632;SDS011;61927;50.080;14.418;2024-01-15T07:50:45;17.38;;;8.65;;
73632;SDS011;61927;50.080;14.418;2024-01-15T07:53:11;17.58;;;8.00;;
73632;SDS011;61927;50.080;14.418;2024-01-15T07:55:38;17.95;;;8.27;;
73632;SDS011;61927;50.080;14.418;2024-01-15T07:58:04;16.65;;;7.97;;
73632;SDS011;61927;50.080;14.418;2024-01-15T08:00:29;13.68;;;7.90;;
73632;SDS011;61927;50.080;14.418;2024-01-15T08:02:55;22.58;;;8.43;;
73632;SDS011;61927;50.080;14.418;2024-01-15T08:05:21;25.25;;;8.35;;
73632;SDS011;61927;50.080;14.418;2024-01-15T08:07:47;16.77;;;7.72;;
73632;SDS011;61927;50.080;14.418;2024-01-15T08:10:13;19.95;;;8.15;;
73632;SDS011;61927;50.080;14.418;2024-01-15T08:12:39;18.52;;;7.95;;
73632;SDS011;61927;50.080;14.418;2024-01-15T08:15:05;13.07;;;7.70;;
73632;SDS011;61927;50.080;14.418;2024-01-15T08:17:31;14.05;;;7.38;;
73632;SDS011;61927;50.080;14.418;2024-01-15T08:19:57;17.02;;;8.32;;
73632;SDS011;61927;50.080;14.418;2024-01-15T08:22:24;13.90;;;7.90;;
73632;SDS011;61927;50.080;14.418;2024-01-15T08:24:50;12.75;;;7.05;;
73632;SDS011;61927;50.080;14.418;2024-01-15T08:27:15;14.77;;;7.70;;
73632;SDS011;61927;50.080;14.418;2024-01-15T08:29:41;19.48;;;7.50;;
73632;SDS011;61927;50.080;14.418;2024-01-15T08:32:06;16.13;;;7.90;;
73632;SDS011;61927;50.080;14.418;2024-01-15T08:34:32;12.80;;;7.75;;
73632;SDS011;61927;50.080;14.418;2024-01-15T08:36:58;13.35;;;7.55;;
73632;SDS011;61927;50.080;14.418;2024-01-15T08:39:23;16.05;;;7.68;;
73632;SDS011;61927;50.080;14.418;2024-01-15T08:41:49;17.58;;;8.18;;
73632;SDS011;61927;50.080;14.418;2024-01-15T08:44:15;14.38;;;6.82;;
73632;SDS011;61927;50.080;14.418;2024-01-15T08:46:40;14.85;;;6.47;;
73632;SDS011;61927;50.080;14.418;2024-01-15T08:49:06;14.55;;;7.50;;
73632;SDS011;61927;50.080;14.418;2024-01-15T08:51:31;10.45;;;6.72;;
73632;SDS011;61927;50.080;14.418;2024-01-15T08:53:57;12.15;;;7.65;;
73632;SDS011;61927;50.080;14.418;2024-01-15T08:56:23;14.82;;;7.00;;
73632;SDS011;61927;50.080;14.418;2024-01-15T08:58:49;18.73;;;7.18;;
73632;SDS011;61927;50.080;14.418;2024-01-15T09:01:15;21.65;;;8.25;;
73632;SDS011;61927;50.080;14.418;2024-01-15T09:03:41;11.70;;;7.13;;
73632;SDS011;61927;50.080;14.418;2024-01-15T09:06:10;15.57;;;7.15;;
73632;SDS011;61927;50.080;14.418;2024-01-15T09:08:36;15.38;;;8.00;;
73632;SDS011;61927;50.080;14.418;2024-01-15T09:11:02;12.25;;;7.57;;
73632;SDS011;61927;50.080;14.418;2024-01-15T09:13:29;12.75;;;7.13;;
73632;SDS011;61927;50.080;14.418;2024-01-15T09:15:54;17.63;;;8.57;;
73632;SDS011;61927;50.080;14.418;2024-01-15T09:18:20;13.68;;;7.03;;
73632;SDS011;61927;50.080;14.418;2024-01-15T09:20:46;15.60;;;7.20;;
73632;SDS011;61927;50.080;14.418;2024-01-15T09:23:12;18.02;;;6.95;;
73632;SDS011;61927;50.080;14.418;2024-01-15T09:25:37;20.95;;;6.43;;
73632;SDS011;61927;50.080;14.418;2024-01-15T09:28:03;16.38;;;6.50;;
73632;SDS011;61927;50.080;14.418;2024-01-15T09:30:29;14.07;;;6.60;;
73632;SDS011;61927;50.080;14.418;2024-01-15T09:32:55;13.43;;;6.90;;
73632;SDS011;61927;50.080;14.418;2024-01-15T09:35:22;11.30;;;5.90;;
73632;SDS011;61927;50.080;14.418;2024-01-15T09:37:48;14.48;;;6.90;;
73632;SDS011;61927;50.080;14.418;2024-01-15T09:40:14;21.67;;;6.32;;
73632;SDS011;61927;50.080;14.418;2024-01-15T09:42:41;9.07;;;6.32;;
73632;SDS011;61927;50.080;14.418;2024-01-15T09:45:07;9.07;;;5.60;;
73632;SDS011;61927;50.080;14.418;2024-01-15T09:47:35;8.52;;;5.93;;
73632;SDS011;61927;50.080;14.418;2024-01-15T09:50:02;12.88;;;6.05;;
73632;SDS011;61927;50.080;14.418;2024-01-15T09:52:29;27.48;;;7.45;;
73632;SDS011;61927;50.080;14.418;2024-01-15T09:54:56;16.75;;;6.32;;
73632;SDS011;61927;50.080;14.418;2024-01-15T09:57:24;10.35;;;5.40;;
73632;SDS011;61927;50.080;14.418;2024-01-15T09:59:50;11.90;;;6.10;;
73632;SDS011;61927;50.080;14.418;2024-01-15T10:02:19;10.13;;;5.57;;
73632;SDS011;61927;50.080;14.418;2024-01-15T10:04:46;13.68;;;6.00;;
73632;SDS011;61927;50.080;14.418;2024-01-15T10:07:15;11.68;;;6.22;;
73632;SDS011;61927;50.080;14.418;2024-01-15T10:09:44;11.77;;;6.05;;
73632;SDS011;61927;50.080;14.418;2024-01-15T10:12:14;10.82;;;6.22;;
73632;SDS011;61927;50.080;14.418;2024-01-15T10:14:40;11.13;;;6.13;;
73632;SDS011;61927;50.080;14.418;2024-01-15T10:17:14;17.67;;;6.75;;
73632;SDS011;61927;50.080;14.418;2024-01-15T10:19:44;10.68;;;6.00;;
73632;SDS011;61927;50.080;14.418;2024-01-15T10:22:16;10.27;;;6.50;;
73632;SDS011;61927;50.080;14.418;2024-01-15T10:24:46;13.93;;;6.68;;
73632;SDS011;61927;50.080;14.418;2024-01-15T10:27:15;8.68;;;5.28;;
73632;SDS011;61927;50.080;14.418;2024-01-15T10:29:42;9.68;;;5.88;;
73632;SDS011;61927;50.080;14.418;2024-01-15T10:32:08;11.30;;;6.47;;
73632;SDS011;61927;50.080;14.418;2024-01-15T10:34:37;13.88;;;6.22;;
73632;SDS011;61927;50.080;14.418;2024-01-15T10:37:06;15.45;;;5.38;;
73632;SDS011;61927;50.080;14.418;2024-01-15T10:39:33;10.25;;;5.20;;
73632;SDS011;61927;50.080;14.418;2024-01-15T10:42:06;12.70;;;5.32;;
73632;SDS011;61927;50.080;14.418;2024-01-15T10:44:33;10.05;;;5.28;;
73632;SDS011;61927;50.080;14.418;2024-01-15T10:47:00;12.13;;;5.32;;
73632;SDS011;61927;50.080;14.418;2024-01-15T10:49:26;8.48;;;5.53;;
73632;SDS011;61927;50.080;14.418;2024-01-15T10:51:53;8.73;;;5.25;;
73632;SDS011;61927;50.080;14.418;2024-01-15T10:54:20;14.23;;;5.50;;
73632;SDS011;61927;50.080;14.418;2024-01-15T10:56:49;8.93;;;5.63;;
73632;SDS011;61927;50.080;14.418;2024-01-15T10:59:19;8.10;;;4.68;;
73632;SDS011;61927;50.080;14.418;2024-01-15T11:01:46;7.70;;;5.03;;
73632;SDS011;61927;50.080;14.418;2024-01-15T11:04:12;10.25;;;5.28;;
73632;SDS011;61927;50.080;14.418;2024-01-15T11:06:45;7.28;;;5.15;;
73632;SDS011;61927;50.080;14.418;2024-01-15T11:09:12;15.13;;;5.32;;
73632;SDS011;61927;50.080;14.418;2024-01-15T11:11:40;11.10;;;5.30;;
73632;SDS011;61927;50.080;14.418;2024-01-15T11:14:06;16.50;;;6.70;;
73632;SDS011;61927;50.080;14.418;2024-01-15T11:19:21;15.52;;;5.50;;
73632;SDS011;61927;50.080;14.418;2024-01-15T11:21:47;8.27;;;4.88;;
73632;SDS011;61927;50.080;14.418;2024-01-15T11:24:33;8.35;;;4.97;;
73632;SDS011;61927;50.080;14.418;2024-01-15T11:27:03;9.73;;;5.72;;
73632;SDS011;61927;50.080;14.418;2024-01-15T11:29:30;11.38;;;5.85;;
73632;SDS011;61927;50.080;14.418;2024-01-15T11:31:59;15.25;;;5.20;;
73632;SDS011;61927;50.080;14.418;2024-01-15T11:37:25;9.48;;;5.43;;
73632;SDS011;61927;50.080;14.418;2024-01-15T11:40:00;9.25;;;5.75;;
73632;SDS011;61927;50.080;14.418;2024-01-15T11:42:29;12.95;;;5.68;;
73632;SDS011;61927;50.080;14.418;2024-01-15T11:44:55;11.55;;;6.18;;
73632;SDS011;61927;50.080;14.418;2024-01-15T11:47:30;14.85;;;5.93;;
73632;SDS011;61927;50.080;14.418;2024-01-15T11:50:07;16.65;;;5.80;;
73632;SDS011;61927;50.080;14.418;2024-01-15T11:52:34;11.52;;;6.18;;
73632;SDS011;61927;50.080;14.418;2024-01-15T11:57:50;14.52;;;5.60;;
73632;SDS011;61927;50.080;14.418;2024-01-15T12:00:23;10.77;;;5.75;;
73632;SDS011;61927;50.080;14.418;2024-01-15T12:02:50;11.00;;;5.68;;
73632;SDS011;61927;50.080;14.418;2024-01-15T12:05:24;9.13;;;5.55;;
73632;SDS011;61927;50.080;14.418;2024-01-15T12:07:50;9.80;;;5.95;;
73632;SDS011;61927;50.080;14.418;2024-01-15T12:10:17;11.45;;;5.70;;
73632;SDS011;61927;50.080;14.418;2024-01-15T12:12:57;11.95;;;6.05;;
73632;SDS011;61927;50.080;14.418;2024-01-15T12:15:25;10.23;;;5.38;;
73632;SDS011;61927;50.080;14.418;2024-01-15T12:17:55;8.63;;;5.47;;
73632;SDS011;61927;50.080;14.418;2024-01-15T12:20:26;12.05;;;5.00;;
73632;SDS011;61927;50.080;14.418;2024-01-15T12:22:52;13.13;;;5.82;;
73632;SDS011;61927;50.080;14.418;2024-01-15T12:25:18;10.05;;;6.00;;
73632;SDS011;61927;50.080;14.418;2024-01-15T12:27:44;11.45;;;5.85;;
73632;SDS011;61927;50.080;14.418;2024-01-15T12:30:11;12.93;;;5.72;;
73632;SDS011;61927;50.080;14.418;2024-01-15T12:32:42;14.88;;;6.22;;
73632;SDS011;61927;50.080;14.418;2024-01-15T12:35:08;13.13;;;5.88;;
73632;SDS011;61927;50.080;14.418;2024-01-15T12:37:36;10.48;;;6.00;;
73632;SDS011;61927;50.080;14.418;2024-01-15T12:40:04;10.30;;;6.28;;
73632;SDS011;61927;50.080;14.418;2024-01-15T12:42:32;8.13;;;4.97;;
73632;SDS011;61927;50.080;14.418;2024-01-15T12:45:00;12.20;;;6.80;;
73632;SDS011;61927;50.080;14.418;2024-01-15T12:47:26;13.82;;;5.53;;
73632;SDS011;61927;50.080;14.418;2024-01-15T12:49:52;9.52;;;5.13;;
73632;SDS011;61927;50.080;14.418;2024-01-15T12:52:21;11.23;;;5.32;;
73632;SDS011;61927;50.080;14.418;2024-01-15T12:54:49;9.82;;;5.60;;
73632;SDS011;61927;50.080;14.418;2024-01-15T12:57:17;12.20;;;6.00;;
73632;SDS011;61927;50.080;14.418;2024-01-15T12:59:45;10.35;;;5.22;;
73632;SDS011;61927;50.080;14.418;2024-01-15T13:02:12;9.73;;;5.47;;
73632;SDS011;61927;50.080;14.418;2024-01-15T13:04:38;14.20;;;6.32;;
73632;SDS011;61927;50.080;14.418;2024-01-15T13:07:05;13.88;;;4.93;;
73632;SDS011;61927;50.080;14.418;2024-01-15T13:09:31;9.10;;;5.32;;
73632;SDS011;61927;50.080;14.418;2024-01-15T13:11:57;10.35;;;4.93;;
73632;SDS011;61927;50.080;14.418;2024-01-15T13:14:23;7.93;;;4.47;;
73632;SDS011;61927;50.080;14.418;2024-01-15T13:16:48;9.05;;;4.43;;
73632;SDS011;61927;50.080;14.418;2024-01-15T13:19:14;7.10;;;4.93;;
73632;SDS011;61927;50.080;14.418;2024-01-15T13:21:40;7.22;;;4.75;;
73632;SDS011;61927;50.080;14.418;2024-01-15T13:24:06;14.35;;;4.93;;
73632;SDS011;61927;50.080;14.418;2024-01-15T13:26:32;10.43;;;4.50;;
73632;SDS011;61927;50.080;14.418;2024-01-15T13:29:07;13.30;;;5.18;;
73632;SDS011;61927;50.080;14.418;2024-01-15T13:31:33;7.13;;;4.68;;
73632;SDS011;61927;50.080;14.418;2024-01-15T13:33:59;8.05;;;4.85;;
73632;SDS011;61927;50.080;14.418;2024-01-15T13:36:26;14.40;;;8.40;;
73632;SDS011;61927;50.080;14.418;2024-01-15T13:38:52;6.50;;;4.60;;
73632;SDS011;61927;50.080;14.418;2024-01-15T13:41:22;9.65;;;4.63;;
73632;SDS011;61927;50.080;14.418;2024-01-15T13:43:52;13.68;;;5.15;;
73632;SDS011;61927;50.080;14.418;2024-01-15T13:46:19;9.70;;;4.63;;
73632;SDS011;61927;50.080;14.418;2024-01-15T13:48:48;11.00;;;4.63;;
73632;SDS011;61927;50.080;14.418;2024-01-15T13:51:14;11.38;;;4.97;;
73632;SDS011;61927;50.080;14.418;2024-01-15T13:53:40;8.13;;;4.43;;
73632;SDS011;61927;50.080;14.418;2024-01-15T13:56:06;7.85;;;5.10;;
73632;SDS011;61927;50.080;14.418;2024-01-15T13:58:32;8.98;;;4.70;;
73632;SDS011;61927;50.080;14.418;2024-01-15T14:00:59;6.05;;;3.95;;
73632;SDS011;61927;50.080;14.418;2024-01-15T14:03:25;7.30;;;4.22;;
73632;SDS011;61927;50.080;14.418;2024-01-15T14:05:51;7.22;;;3.78;;
73632;SDS011;61927;50.080;14.418;2024-01-15T14:08:17;7.78;;;4.30;;
73632;SDS011;61927;50.080;14.418;2024-01-15T14:10:43;7.63;;;3.70;;
73632;SDS011;61927;50.080;14.418;2024-01-15T14:13:09;11.13;;;3.75;;
73632;SDS011;61927;50.080;14.418;2024-01-15T14:15:34;14.15;;;6.88;;
73632;SDS011;61927;50.080;14.418;2024-01-15T14:18:00;6.65;;;3.88;;
73632;SDS011;61927;50.080;14.418;2024-01-15T14:20:26;5.43;;;3.75;;
73632;SDS011;61927;50.080;14.418;2024-01-15T14:22:53;8.27;;;3.53;;
73632;SDS011;61927;50.080;14.418;2024-01-15T14:25:19;6.95;;;3.70;;